Templepatrick, United Kingdom
Current Conditions -  °F | °C
As of 5:50 PM on Monday 24 Nov 2014 (Local Time) from EGAA Reporting Station
Drizzle Drizzle  
Wind Chill: 41°   Ceiling: 1700
Heat Index: 45°   Visibility: 6mi
Dew Point: 41°   Wind: 7mph
Humidity: 87%   Direction: 190°S
Pressure: 30.24"   Gusts: NA
Location:  54.68°N, 6.08°W
Report Text: EGAA 241750Z 19006KT 9999 -DZ BKN017 07/05 Q1024
Loading
Personal Weather Stations






























Interactive Weather Map New forecast layout! Learn more

10-Day Weather Forecast

Advertisements
Track Severe Weather on mobile